アムステルダム/スキポール の空港の天気 - METARとTAF

スキポール空港(アムステルダム) ( EHAM / AMS ) - オランダ アムステルダム
飛行場実況気象(Metar)
観測時間02/21 16:25 CET (02/21 15:25 UTC)
風向・風速南西 11m/s 瞬間風速16m/s
視程10km以上
天気現象
全天の4割程度の雲 雲底高度 670m
全天の8割程度の雲 雲底高度 1190m
気温9℃
湿度76%
気圧1022hPa
METAREHAM 211525Z 23022G32KT 200V260 9999 SCT022 BKN039 09/05 Q1022 NOSIG
過去の天気等 Google飛行場航空写真 Wunderground天気予報

過去48時間のMETAR

飛行場予報(TAF)
発表時間: 2/21 12:41 CET (2/21 11:41 UTC)
予報対象時間: 21日13時 CET ~ 22日19時 CET
風向・風速南西 11m/s 瞬間風速 17m/s
視程10km以上
少しの雲 雲底高度 760m
22日5時 CET ~ 22日7時 CET に徐々に
風向・風速南西 13m/s 瞬間風速 20m/s
全天の8割程度の雲 雲底高度 550m
22日7時 CET ~ 22日16時 CET に一時的に
視程6000m
天気現象雨霧雨
全天の4割程度の雲 雲底高度 240m
全天の8割程度の雲 雲底高度 370m
22日12時 CET ~ 22日16時 CET に 確率 30% で一時的に
視程4000m
天気現象霧雨
全天の4割程度の雲 雲底高度 120m
全天の8割程度の雲 雲底高度 180m
22日16時 CET ~ 22日19時 CET に徐々に
風向・風速西 13m/s 瞬間風速 18m/s
全天の4割程度の雲 雲底高度 760m
22日16時 CET ~ 22日19時 CET に一時的に
視程5000m
天気現象弱いしゅう雨 雨
全天の4割程度の雲 雲底高度 180m
全天の4割程度の塔状積雲 雲底高度 460m
全天の8割程度の雲 雲底高度 550m
TAF COR EHAM 211141Z 2112/2218 23022G33KT 9999 FEW025
BECMG 2204/2206 23026G38KT BKN018
TEMPO 2206/2215 6000 RADZ SCT008 BKN012
PROB30 TEMPO 2211/2215 4000 DZ SCT004 BKN006
BECMG 2215/2218 26025G35KT SCT025
TEMPO 2215/2218 5000 -SHRA RA SCT006 SCT015TCU BKN018